Sanford, VA (23426)

8:41 AM EDT on June 03, 2015 (GMT -0400)
Turkey's Rest | | Change Station
CLOSE
Current Station
Personal Weather Station
Location: Bloxom, VA
Elevation: 23 ft
Nearby Weather Stations

Elev 23 ft 37.85 °N, 75.59 °W | Updated 19 seconds ago

Overcast
Overcast
61.0 °F
Feels Like 61.0 °F
N
2.0
Wind Variable Wind from NNE
Gusts 6.0 mph

Today
High -- | Low -- °F
--% Chance of Precip.
Yesterday
High -- | Low -- °F
Precip. -- in
5:41 AM 8:20 PM
Full, 99% visible
Pressure 30.09 in
Visibility 10.0 miles
Clouds Overcast 900 ft
Dew Point 61 °F
Humidity 99%
Rainfall 0.18 in
Snow Depth Not available.
UV 1 out of 12
Pollen 2.00 out of 12
Air Quality Not available.
Flu Activity Sporadic
METAR KWAL 031154Z AUTO 04016G24KT 10SM OVC009 16/16 A3010 RMK AO2 PK WND 03027/1100 SLP190 60001 70007 T01610156 10167 20156 53009

More Conditions Fewer Conditions

Pressure 30.09 in
Visibility 10.0 miles
Clouds Overcast 900 ft
Dew Point 61 °F
Humidity 99%
Rainfall 0.18 in
Snow Depth Not available.
UV 1 out of 12
Pollen 2.00 out of 12
Air Quality Not available.
Flu Activity Sporadic
METAR KWAL 031154Z AUTO 04016G24KT 10SM OVC009 16/16 A3010 RMK AO2 PK WND 03027/1100 SLP190 60001 70007 T01610156 10167 20156 53009

More Conditions Fewer Conditions

10-Day Weather Forecast

×

Almanac

Astronomy

Jun. 03, 2015 Rise Set
Actual Time
Civil Twilight
Nautical Twilight
Astronomical Twilight
Moon
Length of Visible Light
Length of Day
Tomorrow will be .
, % of the Moon is Illuminated

Today's Extremes

State Highs State Lows

Community

WunderPhotos

Upload Photos

1,826,209 photos uploaded!

WunderBlogs® & News

Nearby

Air Quality

  Air Quality AQ Index Pollutant
Not available.

Snow Depth

Station Depth Elevation

Earthquake Activity

City Distance Mag. Time & Date
Minimum magnitude displayed is 2.5.

Coastal Water Temperatures

Place Temperature

Stations

Nearby Weather Stations

Station Location Temp. Windchill Dew Point Humidity Wind Precip. Elev Updated Type